Time;durP1;ratioP1;P1;durP2;ratioP2;P2;SDS_P1;SDS_P2;PMS_P1;PMS_P2;Temp;Humidity;BMP_temperature;BMP_pressure;BME280_temperature;BME280_humidity;BME280_pressure;Samples;Min_cycle;Max_cycle;Signal;HPM_P1;HPM_P2
2021/12/28 00:01:35;;;;;;;15.60;6.30;;;;;;;7.33;100.00;98680.16;8318882;28;20394;-65
2021/12/28 00:05:36;;;;;;;10.52;5.15;;;;;;;7.43;100.00;98680.84;8322022;28;20041;-65
2021/12/28 00:09:36;;;;;;;12.50;6.55;;;;;;;7.57;100.00;98666.72;8316870;28;20041;-65
2021/12/28 00:13:37;;;;;;;12.13;5.70;;;;;;;7.69;100.00;98670.78;8315572;28;20033;-65
2021/12/28 00:18:09;;;;;;;12.40;5.03;;;;;;;7.87;100.00;98662.56;8317815;28;20060;-65
2021/12/28 00:21:58;;;;;;;12.07;3.83;;;;;;;8.07;100.00;98678.19;8318144;28;20038;-65
2021/12/28 00:25:59;;;;;;;15.25;3.40;;;;;;;8.33;100.00;98663.69;8332549;28;20434;-65
2021/12/28 00:30:01;;;;;;;12.15;3.47;;;;;;;8.49;100.00;98658.25;8332768;28;20132;-65
2021/12/28 00:34:01;;;;;;;13.23;3.58;;;;;;;8.66;100.00;98649.94;8309524;28;20064;-65
2021/12/28 00:38:04;;;;;;;11.18;3.92;;;;;;;8.71;100.00;98630.56;8309926;28;20053;-65
2021/12/28 00:42:05;;;;;;;13.32;3.75;;;;;;;8.66;100.00;98639.19;8322108;28;20052;-65
2021/12/28 00:46:06;;;;;;;17.75;4.63;;;;;;;8.61;100.00;98629.94;8329046;28;20068;-65
2021/12/28 00:50:09;;;;;;;18.88;3.95;;;;;;;8.79;100.00;98622.47;8343974;28;20429;-66
2021/12/28 00:54:09;;;;;;;22.05;3.95;;;;;;;8.98;100.00;98614.78;8321358;28;20037;-65
2021/12/28 00:58:10;;;;;;;22.48;5.32;;;;;;;9.19;100.00;98619.53;8309680;28;20665;-65
2021/12/28 01:02:10;;;;;;;22.52;4.82;;;;;;;9.23;100.00;98613.63;8290594;28;20069;-65
2021/12/28 01:06:10;;;;;;;17.20;6.22;;;;;;;9.16;100.00;98611.81;8320868;28;20077;-65
2021/12/28 01:10:16;;;;;;;14.88;3.85;;;;;;;9.06;100.00;98595.84;8321652;28;20069;-65
2021/12/28 01:14:16;;;;;;;23.52;3.22;;;;;;;8.95;100.00;98600.81;8322231;28;20069;-65
2021/12/28 01:18:17;;;;;;;9.93;2.90;;;;;;;8.89;100.00;98607.75;8322663;28;20045;-65
2021/12/28 01:22:17;;;;;;;17.63;2.90;;;;;;;8.89;100.00;98609.63;8317241;28;20048;-66
2021/12/28 01:26:18;;;;;;;18.38;3.35;;;;;;;8.86;100.00;98609.97;8304640;28;20050;-65
2021/12/28 01:30:21;;;;;;;19.05;4.25;;;;;;;9.00;100.00;98603.84;8304742;28;20116;-65
2021/12/28 01:34:21;;;;;;;18.20;3.70;;;;;;;8.91;100.00;98599.50;8321784;28;20037;-65
2021/12/28 01:38:21;;;;;;;20.98;3.30;;;;;;;8.96;100.00;98602.50;8320207;28;20046;-65
2021/12/28 01:42:22;;;;;;;14.30;3.78;;;;;;;9.07;100.00;98610.19;8329655;28;20625;-65
2021/12/28 01:46:23;;;;;;;18.25;3.63;;;;;;;9.17;100.00;98602.69;8354406;28;20070;-65
2021/12/28 01:50:23;;;;;;;25.73;3.75;;;;;;;9.19;100.00;98603.38;8339306;28;20069;-65
2021/12/28 01:54:24;;;;;;;25.00;4.00;;;;;;;9.29;100.00;98603.97;8336031;28;20037;-65
2021/12/28 01:58:24;;;;;;;25.90;5.03;;;;;;;9.47;100.00;98596.41;8321140;28;20370;-65
2021/12/28 02:02:25;;;;;;;22.70;3.63;;;;;;;9.46;100.00;98589.38;8321406;28;20038;-66
2021/12/28 02:06:25;;;;;;;39.92;4.43;;;;;;;9.39;100.00;98589.22;8314960;28;20041;-65
2021/12/28 02:10:26;;;;;;;29.20;3.97;;;;;;;9.31;100.00;98592.00;8319422;28;20063;-65
2021/12/28 02:14:27;;;;;;;21.00;3.63;;;;;;;9.14;100.00;98587.72;8311925;28;20034;-65
2021/12/28 02:18:30;;;;;;;25.20;3.92;;;;;;;9.12;100.00;98576.28;8289083;28;20034;-65
2021/12/28 02:22:31;;;;;;;21.63;3.70;;;;;;;9.21;100.00;98574.38;8318927;28;20061;-65
2021/12/28 02:26:31;;;;;;;26.80;3.85;;;;;;;9.25;100.00;98575.69;8318646;28;20772;-66
2021/12/28 02:30:34;;;;;;;18.83;2.95;;;;;;;9.23;100.00;98572.34;8318632;28;20056;-66
2021/12/28 02:34:34;;;;;;;18.95;3.67;;;;;;;9.20;100.00;98567.28;8319273;28;20517;-66
2021/12/28 02:38:35;;;;;;;19.13;2.88;;;;;;;9.21;100.00;98560.91;8317826;28;20420;-65
2021/12/28 02:42:35;;;;;;;25.73;3.78;;;;;;;9.24;100.00;98563.25;8329102;28;20421;-66
2021/12/28 02:46:36;;;;;;;21.42;3.55;;;;;;;9.30;100.00;98570.63;8331189;28;20046;-66
2021/12/28 02:50:41;;;;;;;19.05;3.60;;;;;;;9.34;100.00;98555.75;8310025;28;20061;-65
2021/12/28 02:54:42;;;;;;;16.52;3.08;;;;;;;9.35;100.00;98549.31;8318823;28;20030;-65
2021/12/28 02:58:45;;;;;;;27.10;3.58;;;;;;;9.32;100.00;98552.38;8319010;28;20029;-65
2021/12/28 03:02:46;;;;;;;17.35;3.00;;;;;;;9.36;100.00;98545.59;8315208;28;20087;-65
2021/12/28 03:06:46;;;;;;;17.27;3.72;;;;;;;9.37;100.00;98537.31;8307565;28;20045;-65
2021/12/28 03:10:48;;;;;;;17.92;3.50;;;;;;;9.40;100.00;98533.44;8318048;28;20049;-65
2021/12/28 03:14:49;;;;;;;27.15;4.35;;;;;;;9.45;100.00;98534.56;8318754;28;20123;-65
2021/12/28 03:18:49;;;;;;;19.95;4.70;;;;;;;9.51;100.00;98527.59;8319412;28;20045;-65
2021/12/28 03:22:50;;;;;;;25.73;3.50;;;;;;;9.54;100.00;98516.44;8320358;28;20044;-65
2021/12/28 03:26:50;;;;;;;25.17;4.78;;;;;;;9.68;100.00;98512.97;8321328;28;20045;-65
2021/12/28 03:30:52;;;;;;;22.00;4.15;;;;;;;9.74;100.00;98512.22;8321194;28;20492;-65
2021/12/28 03:34:53;;;;;;;23.65;4.03;;;;;;;9.82;100.00;98504.03;8322160;28;20387;-65
2021/12/28 03:38:54;;;;;;;22.95;3.08;;;;;;;9.89;100.00;98513.06;8322588;28;20033;-65
2021/12/28 03:42:55;;;;;;;25.48;3.53;;;;;;;9.92;100.00;98510.00;8322464;28;20038;-65
2021/12/28 03:46:55;;;;;;;18.65;3.90;;;;;;;9.87;100.00;98502.47;8322579;28;20352;-65
2021/12/28 03:50:56;;;;;;;25.52;3.20;;;;;;;9.88;100.00;98497.88;8320782;28;20036;-65
2021/12/28 03:54:56;;;;;;;30.30;4.20;;;;;;;9.90;100.00;98485.06;8304160;28;20045;-65
2021/12/28 03:58:57;;;;;;;17.95;3.25;;;;;;;9.89;100.00;98480.69;8321528;28;20037;-65
2021/12/28 04:02:57;;;;;;;17.50;3.20;;;;;;;9.87;100.00;98480.03;8322056;28;20083;-65
2021/12/28 04:06:58;;;;;;;21.67;3.08;;;;;;;9.97;100.00;98475.19;8302411;28;20050;-65
2021/12/28 04:11:13;;;;;;;16.70;3.22;;;;;;;10.03;100.00;98463.63;8326012;28;20095;-65
2021/12/28 04:15:14;;;;;;;23.40;3.45;;;;;;;10.11;100.00;98474.38;8355098;28;20056;-65
2021/12/28 04:19:14;;;;;;;15.10;2.78;;;;;;;10.11;100.00;98466.28;8364732;28;20084;-65
2021/12/28 04:23:15;;;;;;;18.60;3.47;;;;;;;9.97;100.00;98465.22;8327814;28;20060;-65
2021/12/28 04:27:16;;;;;;;20.65;3.58;;;;;;;9.93;100.00;98463.09;8328135;28;20052;-65
2021/12/28 04:31:16;;;;;;;21.40;3.80;;;;;;;9.93;100.00;98452.31;8328054;28;20049;-65
2021/12/28 04:35:16;;;;;;;20.90;3.47;;;;;;;9.92;100.00;98461.44;8324342;28;20041;-65
2021/12/28 04:39:18;;;;;;;13.75;3.25;;;;;;;9.92;100.00;98453.34;8344943;28;20046;-65
2021/12/28 04:43:20;;;;;;;17.30;2.97;;;;;;;9.92;100.00;98451.44;8298861;28;21577;-65
2021/12/28 04:47:20;;;;;;;19.88;2.60;;;;;;;9.93;100.00;98457.69;8338745;28;20633;-65
2021/12/28 04:51:22;;;;;;;23.45;2.80;;;;;;;10.00;100.00;98453.22;8316959;28;20446;-65
2021/12/28 04:55:23;;;;;;;18.23;3.70;;;;;;;10.01;100.00;98449.50;8326744;28;20468;-65
2021/12/28 04:59:23;;;;;;;24.13;2.90;;;;;;;10.03;100.00;98447.44;8327274;28;20122;-65
2021/12/28 05:03:24;;;;;;;21.02;2.85;;;;;;;10.07;100.00;98437.16;8326613;28;20568;-65
2021/12/28 05:07:26;;;;;;;17.38;2.92;;;;;;;10.02;100.00;98432.28;8326790;28;20400;-65
2021/12/28 05:11:28;;;;;;;16.02;2.15;;;;;;;9.99;100.00;98420.00;8326436;28;20029;-65
2021/12/28 05:15:29;;;;;;;24.20;2.75;;;;;;;10.01;100.00;98419.81;8326203;28;20553;-65
2021/12/28 05:19:29;;;;;;;9.05;2.92;;;;;;;10.04;100.00;98422.16;8326077;28;20561;-65
2021/12/28 05:23:29;;;;;;;12.37;1.90;;;;;;;9.99;100.00;98421.88;8325822;28;20517;-64
2021/12/28 05:27:30;;;;;;;13.00;2.33;;;;;;;9.96;100.00;98419.53;8341456;28;20295;-64
2021/12/28 05:31:31;;;;;;;12.00;1.85;;;;;;;9.96;100.00;98424.94;8332679;28;20087;-64
2021/12/28 05:35:32;;;;;;;16.33;2.25;;;;;;;9.95;100.00;98423.28;8312239;28;20056;-64
2021/12/28 05:39:33;;;;;;;10.48;1.80;;;;;;;9.92;100.00;98412.84;8326344;28;20033;-65
2021/12/28 05:43:33;;;;;;;12.20;1.90;;;;;;;9.88;100.00;98406.97;8325138;28;20056;-65
2021/12/28 05:47:34;;;;;;;16.45;1.92;;;;;;;9.92;100.00;98404.75;8324199;28;20434;-65
2021/12/28 05:51:34;;;;;;;8.35;2.08;;;;;;;9.89;100.00;98387.06;8325736;28;20044;-65
2021/12/28 05:55:35;;;;;;;9.13;1.77;;;;;;;9.94;100.00;98394.59;8324705;28;20033;-65
2021/12/28 05:59:36;;;;;;;7.85;1.60;;;;;;;9.97;100.00;98388.81;8339817;28;20063;-65
2021/12/28 06:03:36;;;;;;;9.30;2.33;;;;;;;9.96;100.00;98388.00;8340580;28;20033;-65
2021/12/28 06:07:37;;;;;;;16.20;1.95;;;;;;;10.04;100.00;98384.34;8356521;28;20408;-65
2021/12/28 06:11:38;;;;;;;18.15;2.20;;;;;;;10.01;100.00;98387.44;8372913;28;20033;-64
2021/12/28 06:15:38;;;;;;;16.10;2.10;;;;;;;9.98;100.00;98390.50;8336263;28;20361;-65
2021/12/28 06:19:39;;;;;;;13.10;2.40;;;;;;;9.96;100.00;98392.56;8346446;28;20522;-65
2021/12/28 06:23:39;;;;;;;10.48;2.55;;;;;;;9.97;100.00;98399.63;8319586;28;20041;-65
2021/12/28 06:27:40;;;;;;;12.25;3.08;;;;;;;9.98;100.00;98404.00;8352290;28;20044;-65
2021/12/28 06:31:40;;;;;;;7.95;2.50;;;;;;;9.87;100.00;98396.38;8343969;28;20056;-65
2021/12/28 06:35:40;;;;;;;11.90;2.33;;;;;;;9.86;100.00;98400.09;8343364;28;20499;-64
2021/12/28 06:39:41;;;;;;;10.77;2.83;;;;;;;9.82;100.00;98407.72;8333027;28;20526;-65
2021/12/28 06:43:41;;;;;;;11.82;3.30;;;;;;;9.79;100.00;98407.28;8347624;28;20563;-65
2021/12/28 06:47:42;;;;;;;11.27;3.42;;;;;;;9.71;100.00;98397.44;8347020;28;20060;-64
2021/12/28 06:51:43;;;;;;;19.23;3.70;;;;;;;9.72;100.00;98400.94;8347792;28;20097;-65
2021/12/28 06:55:43;;;;;;;15.18;4.38;;;;;;;9.65;100.00;98408.13;8347133;28;20064;-65
2021/12/28 06:59:45;;;;;;;12.63;4.40;;;;;;;9.75;100.00;98411.38;8347949;28;20396;-65
2021/12/28 07:03:45;;;;;;;17.08;4.03;;;;;;;9.75;100.00;98412.22;8346447;28;20041;-65
2021/12/28 07:07:46;;;;;;;14.27;4.70;;;;;;;9.69;100.00;98406.72;8347801;28;20551;-65
2021/12/28 07:11:46;;;;;;;14.52;4.43;;;;;;;9.66;100.00;98399.00;8351042;28;20122;-65
2021/12/28 07:15:47;;;;;;;14.48;4.78;;;;;;;9.63;100.00;98386.72;8335295;28;20037;-65
2021/12/28 07:19:47;;;;;;;18.35;5.30;;;;;;;9.46;100.00;98373.63;8344770;28;20041;-65
2021/12/28 07:23:47;;;;;;;12.43;4.13;;;;;;;9.39;100.00;98372.66;8344314;28;20037;-65
2021/12/28 07:27:48;;;;;;;13.25;4.65;;;;;;;9.29;100.00;98377.50;8344542;28;20511;-65
2021/12/28 07:31:49;;;;;;;11.77;4.75;;;;;;;9.42;100.00;98383.09;8307623;28;20515;-65
2021/12/28 07:35:49;;;;;;;17.33;5.13;;;;;;;9.40;100.00;98379.75;8354678;28;20541;-65
2021/12/28 07:39:50;;;;;;;59.38;20.33;;;;;;;9.35;100.00;98390.25;8346744;28;20436;-65
2021/12/28 07:43:51;;;;;;;16.92;4.65;;;;;;;9.46;100.00;98408.69;8343896;28;20037;-65
2021/12/28 07:47:51;;;;;;;13.57;4.78;;;;;;;9.46;100.00;98411.38;8336629;28;20164;-65
2021/12/28 07:51:51;;;;;;;13.95;4.50;;;;;;;9.46;100.00;98416.75;8348861;28;20456;-65
2021/12/28 07:55:52;;;;;;;11.25;4.00;;;;;;;9.39;100.00;98413.09;8348496;28;20046;-65
2021/12/28 07:59:52;;;;;;;12.63;4.25;;;;;;;9.38;100.00;98419.53;8317488;28;20045;-65
2021/12/28 08:03:52;;;;;;;17.05;4.50;;;;;;;9.28;100.00;98425.22;8309151;28;20052;-66
2021/12/28 08:07:53;;;;;;;18.83;6.65;;;;;;;9.26;100.00;98419.16;8317602;28;20084;-65
2021/12/28 08:11:53;;;;;;;12.63;5.15;;;;;;;9.31;100.00;98419.47;8319831;28;20590;-65
2021/12/28 08:15:55;;;;;;;17.08;4.88;;;;;;;9.37;100.00;98423.25;8319351;28;20153;-65
2021/12/28 08:19:56;;;;;;;18.20;5.30;;;;;;;9.36;100.00;98422.41;8319761;28;20044;-65
2021/12/28 08:23:57;;;;;;;9.60;4.55;;;;;;;9.42;100.00;98418.13;8315261;28;20042;-65
2021/12/28 08:27:58;;;;;;;10.98;4.63;;;;;;;9.45;100.00;98415.91;8315526;28;20061;-65
2021/12/28 08:31:58;;;;;;;11.68;3.08;;;;;;;9.49;100.00;98432.56;8316286;28;20485;-65
2021/12/28 08:35:58;;;;;;;13.52;3.97;;;;;;;9.54;100.00;98430.16;8314135;28;20377;-65
2021/12/28 08:40:00;;;;;;;7.63;3.22;;;;;;;9.63;100.00;98423.63;8309143;28;20076;-65
2021/12/28 08:44:00;;;;;;;8.38;3.00;;;;;;;9.69;100.00;98417.50;8297008;28;20519;-65
2021/12/28 08:48:01;;;;;;;5.50;2.10;;;;;;;9.82;100.00;98421.22;8315913;28;20111;-65
2021/12/28 08:52:03;;;;;;;3.60;1.98;;;;;;;9.82;100.00;98425.78;8312532;28;20501;-65
2021/12/28 08:56:03;;;;;;;5.43;2.15;;;;;;;9.86;100.00;98419.81;8314652;28;20076;-65
2021/12/28 09:00:10;;;;;;;3.45;1.90;;;;;;;9.94;100.00;98416.19;8314315;28;20038;-65
2021/12/28 09:04:10;;;;;;;4.97;1.30;;;;;;;10.13;100.00;98410.25;8317605;28;20045;-65
2021/12/28 09:08:13;;;;;;;1.80;1.00;;;;;;;10.28;100.00;98419.13;8309850;28;20042;-66
2021/12/28 09:12:14;;;;;;;1.77;0.88;;;;;;;10.40;100.00;98408.69;8316065;28;20038;-65
2021/12/28 09:16:14;;;;;;;4.38;1.02;;;;;;;10.47;100.00;98412.28;8317471;28;20042;-65
2021/12/28 09:20:18;;;;;;;1.75;0.68;;;;;;;10.55;100.00;98406.78;8314606;28;20060;-65
2021/12/28 09:24:18;;;;;;;3.03;0.57;;;;;;;10.68;100.00;98410.47;8316345;28;20068;-66
2021/12/28 09:28:20;;;;;;;2.45;0.88;;;;;;;10.67;100.00;98410.66;8312489;28;20045;-66
2021/12/28 09:32:21;;;;;;;0.88;0.50;;;;;;;10.60;100.00;98412.44;8340865;28;20041;-66
2021/12/28 09:36:21;;;;;;;1.30;0.60;;;;;;;10.67;100.00;98414.16;8310669;28;20354;-66
2021/12/28 09:40:22;;;;;;;3.97;1.45;;;;;;;10.73;100.00;98418.00;8312539;28;20065;-66
2021/12/28 09:44:22;;;;;;;1.05;0.50;;;;;;;10.76;100.00;98410.31;8312722;28;20038;-66
2021/12/28 09:48:23;;;;;;;3.03;0.52;;;;;;;10.83;100.00;98408.50;8314030;28;20052;-66
2021/12/28 09:52:23;;;;;;;2.92;0.40;;;;;;;10.93;100.00;98409.03;8311101;28;20049;-66
2021/12/28 09:56:24;;;;;;;3.10;0.55;;;;;;;11.09;100.00;98407.91;8311588;28;20045;-66
2021/12/28 10:00:25;;;;;;;0.95;0.40;;;;;;;11.21;100.00;98407.19;8311508;28;20059;-66
2021/12/28 10:04:27;;;;;;;0.40;0.30;;;;;;;11.44;100.00;98402.34;8307609;28;20148;-66
2021/12/28 10:08:27;;;;;;;0.47;0.30;;;;;;;11.62;100.00;98394.59;8311122;28;20575;-66
2021/12/28 10:12:34;;;;;;;1.55;0.20;;;;;;;11.79;100.00;98400.53;8314674;28;20160;-66
2021/12/28 10:16:44;;;;;;;1.15;0.15;;;;;;;12.01;100.00;98387.72;8313687;28;20061;-66
2021/12/28 10:25:17;;;;;;;0.10;0.10;;;;;;;12.88;98.98;98362.31;8354156;27;20946;-64
2021/12/28 10:29:34;;;;;;;0.52;0.20;;;;;;;12.55;100.00;98370.41;8349691;28;20509;-64
2021/12/28 10:33:38;;;;;;;0.38;0.10;;;;;;;12.30;100.00;98354.91;8374158;28;20053;-65
2021/12/28 10:37:41;;;;;;;0.45;0.20;;;;;;;12.42;100.00;98342.44;8375032;28;20040;-65
2021/12/28 10:41:42;;;;;;;0.20;0.10;;;;;;;13.07;100.00;98339.81;8378509;28;20041;-65
2021/12/28 10:45:47;;;;;;;0.25;0.17;;;;;;;15.14;93.59;98342.66;8374774;28;20049;-65
2021/12/28 10:49:48;;;;;;;0.10;0.10;;;;;;;15.18;88.63;98341.16;8375594;28;20061;-65
2021/12/28 10:54:06;;;;;;;0.30;0.30;;;;;;;16.40;84.45;98330.13;8406187;28;20051;-65
2021/12/28 10:58:06;;;;;;;0.38;0.10;;;;;;;14.90;88.91;98321.72;8382097;28;20484;-65
2021/12/28 11:02:07;;;;;;;0.17;0.10;;;;;;;14.19;94.02;98312.13;8386789;28;20815;-65
2021/12/28 11:06:11;;;;;;;0.17;0.10;;;;;;;13.91;95.21;98311.66;8400870;27;20166;-64
2021/12/28 11:10:12;;;;;;;1.10;0.30;;;;;;;13.63;96.99;98305.66;8414219;28;20047;-64
2021/12/28 11:14:16;;;;;;;0.10;0.10;;;;;;;13.42;98.53;98309.50;8406404;28;20048;-64
2021/12/28 11:18:24;;;;;;;0.10;0.10;;;;;;;13.18;99.53;98295.78;8403735;28;20436;-65
2021/12/28 11:22:24;;;;;;;0.70;0.13;;;;;;;13.13;100.00;98287.44;8390260;28;20064;-64
2021/12/28 11:26:30;;;;;;;0.20;0.10;;;;;;;13.16;100.00;98270.72;8381051;28;20048;-65
2021/12/28 11:30:31;;;;;;;0.20;0.20;;;;;;;13.03;100.00;98273.47;8370301;28;20500;-65
2021/12/28 11:34:36;;;;;;;0.95;0.10;;;;;;;12.71;100.00;98277.00;8389360;28;20329;-64
2021/12/28 11:38:37;;;;;;;0.85;0.30;;;;;;;12.44;100.00;98272.63;8389067;28;20044;-64
2021/12/28 11:42:38;;;;;;;0.43;0.20;;;;;;;12.32;100.00;98263.44;8360882;28;20060;-64
2021/12/28 11:46:39;;;;;;;0.55;0.20;;;;;;;12.25;100.00;98266.13;8356905;28;20037;-64
2021/12/28 11:50:39;;;;;;;2.13;1.23;;;;;;;12.32;100.00;98244.47;8371642;28;20041;-64
2021/12/28 11:54:44;;;;;;;1.08;0.60;;;;;;;12.29;100.00;98239.47;8379803;28;20044;-64
2021/12/28 11:59:01;;;;;;;;;;;;;;;12.30;100.00;98225.72;8380880;28;20048;-64
2021/12/28 12:03:02;;;;;;;2.65;1.02;;;;;;;12.33;100.00;98216.34;8367327;28;20702;-64
2021/12/28 12:11:26;;;;;;;1.27;0.70;;;;;;;12.24;100.00;98239.25;8412103;27;20434;-64
2021/12/28 12:15:35;;;;;;;1.08;0.40;;;;;;;12.13;100.00;98246.09;8382884;28;20052;-64
2021/12/28 12:19:46;;;;;;;6.63;0.95;;;;;;;12.11;100.00;98290.69;8362155;28;20033;-63
2021/12/28 12:23:51;;;;;;;15.05;2.38;;;;;;;12.09;100.00;98290.03;8362418;28;20442;-63
2021/12/28 12:27:59;;;;;;;13.93;1.75;;;;;;;12.05;100.00;98286.09;8381477;28;20457;-63
2021/12/28 12:32:00;;;;;;;12.45;2.30;;;;;;;12.01;100.00;98274.00;8369755;28;20067;-63
2021/12/28 12:36:03;;;;;;;17.85;2.08;;;;;;;12.13;98.06;98267.78;8374938;28;20516;-63
2021/12/28 12:40:03;;;;;;;19.80;2.90;;;;;;;12.19;95.49;98261.53;8376910;28;20048;-63
2021/12/28 12:44:11;;;;;;;21.77;2.65;;;;;;;12.15;95.45;98262.16;8389041;28;20302;-64
2021/12/28 12:48:48;;;;;;;13.15;2.30;;;;;;;12.09;93.40;98250.28;8370860;28;20079;-63
2021/12/28 12:52:49;;;;;;;21.10;4.93;;;;;;;12.05;93.69;98257.16;8353846;28;20040;-63
2021/12/28 13:01:02;;;;;;;17.73;2.70;;;;;;;11.93;94.05;98267.72;8394733;27;20797;-64
2021/12/28 13:05:14;;;;;;;20.98;2.80;;;;;;;11.99;93.46;98276.06;8404108;28;20040;-64
2021/12/28 13:09:15;;;;;;;19.33;3.85;;;;;;;12.01;92.37;98274.81;8372996;28;20044;-64
2021/12/28 13:13:16;;;;;;;21.58;3.40;;;;;;;12.09;90.82;98276.50;8352011;28;20504;-64
2021/12/28 13:17:21;;;;;;;24.85;3.38;;;;;;;12.18;87.89;98275.28;8343464;28;20525;-64
2021/12/28 13:21:22;;;;;;;26.00;3.97;;;;;;;12.27;86.38;98271.34;8340374;28;20341;-64
2021/12/28 13:25:27;;;;;;;27.20;3.08;;;;;;;12.45;85.66;98266.16;8356823;28;20043;-64
2021/12/28 13:29:31;;;;;;;21.70;3.20;;;;;;;12.67;84.08;98265.75;8340245;28;20068;-64
2021/12/28 13:33:32;;;;;;;28.63;3.47;;;;;;;12.77;84.26;98265.31;8343346;28;20047;-64
2021/12/28 13:37:44;;;;;;;23.88;3.30;;;;;;;12.88;83.03;98280.97;8341517;28;20049;-64
2021/12/28 13:41:53;;;;;;;25.20;3.53;;;;;;;12.82;82.15;98273.66;8363238;28;20052;-64
2021/12/28 13:45:58;;;;;;;19.45;2.50;;;;;;;12.76;79.81;98285.34;8358211;28;20411;-64
2021/12/28 13:50:00;;;;;;;11.05;1.58;;;;;;;12.62;77.02;98257.41;8349493;28;20040;-65
2021/12/28 13:54:04;;;;;;;5.47;0.88;;;;;;;12.30;74.49;98263.66;8357200;28;20041;-65
2021/12/28 13:58:17;;;;;;;2.45;0.30;;;;;;;11.80;79.28;98251.44;8354390;28;20076;-64
2021/12/28 14:02:17;;;;;;;4.50;0.77;;;;;;;11.57;81.08;98261.75;8340027;28;20135;-65
2021/12/28 14:06:17;;;;;;;1.88;0.22;;;;;;;11.65;82.35;98280.53;8340458;28;20078;-65
2021/12/28 14:10:19;;;;;;;5.85;0.73;;;;;;;11.68;83.48;98268.47;8344995;28;20080;-65
2021/12/28 14:14:23;;;;;;;11.90;1.58;;;;;;;11.82;83.19;98271.03;8336742;28;20525;-64
2021/12/28 14:18:33;;;;;;;11.27;1.90;;;;;;;11.78;84.63;98271.63;8337335;28;20319;-64
2021/12/28 14:22:34;;;;;;;10.05;1.08;;;;;;;11.56;85.77;98284.41;8343233;28;20094;-64
2021/12/28 14:26:39;;;;;;;9.88;1.75;;;;;;;11.38;86.83;98299.53;8327578;28;20033;-64
2021/12/28 14:30:39;;;;;;;10.73;1.17;;;;;;;11.21;88.05;98299.00;8321658;28;20044;-64
2021/12/28 14:34:45;;;;;;;9.75;1.38;;;;;;;11.14;89.23;98313.53;8328594;28;20037;-65
2021/12/28 14:38:47;;;;;;;14.73;1.65;;;;;;;11.15;88.68;98321.44;8329812;28;20049;-65
2021/12/28 14:42:50;;;;;;;11.23;2.28;;;;;;;11.08;88.06;98314.31;8336569;28;20036;-65
2021/12/28 14:46:53;;;;;;;9.52;1.50;;;;;;;11.08;88.87;98309.75;8356340;28;20041;-65
2021/12/28 14:50:53;;;;;;;9.48;1.23;;;;;;;11.07;88.92;98297.25;8345515;28;20653;-65
2021/12/28 14:55:00;;;;;;;10.27;1.33;;;;;;;10.96;89.65;98294.25;8358400;28;20041;-65
2021/12/28 14:59:01;;;;;;;9.63;1.50;;;;;;;10.89;90.20;98287.97;8321796;28;20504;-65
2021/12/28 15:03:05;;;;;;;9.90;1.85;;;;;;;10.84;91.46;98288.56;8324681;28;20652;-65
2021/12/28 15:07:06;;;;;;;13.68;2.95;;;;;;;10.83;92.34;98273.34;8323133;28;20061;-65
2021/12/28 15:11:06;;;;;;;10.80;2.03;;;;;;;10.76;93.93;98266.25;8326877;28;20105;-65
2021/12/28 15:15:09;;;;;;;23.42;2.20;;;;;;;10.65;95.05;98275.75;8344465;28;20036;-65
2021/12/28 15:19:21;;;;;;;8.32;1.73;;;;;;;10.63;94.30;98256.19;8344804;28;20147;-65
2021/12/28 15:23:21;;;;;;;17.33;2.40;;;;;;;10.65;94.37;98258.69;8330931;28;20254;-65
2021/12/28 15:27:22;;;;;;;11.98;1.42;;;;;;;10.74;92.93;98255.63;8352317;28;20123;-65
2021/12/28 15:31:22;;;;;;;18.00;3.13;;;;;;;10.85;91.85;98265.91;8336059;28;20131;-65
2021/12/28 15:35:26;;;;;;;14.18;2.45;;;;;;;10.95;91.58;98255.56;8333494;28;20049;-65
2021/12/28 15:39:29;;;;;;;17.60;2.83;;;;;;;10.97;92.67;98264.31;8318362;28;20152;-65
2021/12/28 15:43:29;;;;;;;13.20;3.00;;;;;;;11.10;91.93;98286.03;8308971;28;20030;-65
2021/12/28 15:47:29;;;;;;;22.92;4.05;;;;;;;11.03;93.57;98268.94;8312598;28;20113;-65
2021/12/28 15:51:30;;;;;;;18.67;2.38;;;;;;;10.98;94.81;98284.91;8336701;28;20041;-65
2021/12/28 15:55:31;;;;;;;23.55;3.05;;;;;;;10.86;97.56;98294.59;8328577;28;20076;-65
2021/12/28 15:59:32;;;;;;;16.33;2.50;;;;;;;10.72;99.16;98287.44;8325590;28;20488;-65
2021/12/28 16:03:34;;;;;;;10.82;1.92;;;;;;;10.52;100.00;98286.41;8323878;28;20463;-66
2021/12/28 16:07:34;;;;;;;15.27;1.70;;;;;;;10.47;98.93;98282.63;8322645;28;20501;-66
2021/12/28 16:11:34;;;;;;;16.83;2.08;;;;;;;10.37;100.00;98277.56;8324366;28;20618;-66
2021/12/28 16:15:35;;;;;;;14.65;1.70;;;;;;;10.44;99.37;98286.56;8299514;28;20531;-65
2021/12/28 16:19:36;;;;;;;10.82;2.17;;;;;;;10.46;98.59;98292.59;8331068;28;20053;-65
2021/12/28 16:23:36;;;;;;;11.50;2.00;;;;;;;10.42;99.99;98294.03;8323229;28;20029;-65
2021/12/28 16:27:37;;;;;;;17.02;2.30;;;;;;;10.38;100.00;98291.91;8320038;28;20029;-65
2021/12/28 16:31:38;;;;;;;13.05;1.98;;;;;;;10.32;100.00;98277.31;8320179;28;20033;-65
2021/12/28 16:35:38;;;;;;;14.82;2.25;;;;;;;10.36;100.00;98273.19;8323051;28;20033;-65
2021/12/28 16:39:39;;;;;;;13.40;2.75;;;;;;;10.33;100.00;98289.78;8326396;28;20062;-65
2021/12/28 16:43:41;;;;;;;11.48;1.98;;;;;;;10.36;100.00;98278.59;8316369;28;20616;-65
2021/12/28 16:47:42;;;;;;;13.52;2.60;;;;;;;10.32;100.00;98282.72;8335102;28;20512;-65
2021/12/28 16:51:42;;;;;;;6.20;1.25;;;;;;;10.34;100.00;98277.94;8342246;28;20082;-65
2021/12/28 16:55:44;;;;;;;11.80;1.75;;;;;;;10.38;100.00;98287.34;8323019;28;20119;-65
2021/12/28 16:59:44;;;;;;;13.35;1.63;;;;;;;10.36;100.00;98297.50;8360062;28;20504;-64
2021/12/28 17:03:45;;;;;;;9.60;1.67;;;;;;;10.42;100.00;98293.19;8343202;28;20107;-65
2021/12/28 17:07:45;;;;;;;11.43;1.60;;;;;;;10.40;100.00;98287.97;8348432;28;20373;-64
2021/12/28 17:11:46;;;;;;;13.65;1.70;;;;;;;10.43;100.00;98286.75;8353225;28;20037;-64
2021/12/28 17:15:47;;;;;;;12.18;1.90;;;;;;;10.42;100.00;98302.13;8337123;28;20091;-64
2021/12/28 17:19:47;;;;;;;14.93;1.67;;;;;;;10.48;100.00;98303.22;8338835;28;20044;-64
2021/12/28 17:23:48;;;;;;;14.38;2.50;;;;;;;10.44;100.00;98304.63;8322595;28;20055;-64
2021/12/28 17:27:49;;;;;;;15.20;2.25;;;;;;;10.50;100.00;98315.50;8333725;28;20071;-64
2021/12/28 17:31:50;;;;;;;10.35;2.40;;;;;;;10.51;100.00;98306.38;8326085;28;20068;-64
2021/12/28 17:35:51;;;;;;;9.60;2.17;;;;;;;10.45;100.00;98333.31;8336176;28;20625;-64
2021/12/28 17:39:51;;;;;;;13.35;2.55;;;;;;;10.32;100.00;98328.63;8331976;28;20440;-65
2021/12/28 17:43:51;;;;;;;10.07;2.28;;;;;;;10.33;100.00;98346.50;8330330;28;20086;-64
2021/12/28 17:47:52;;;;;;;10.60;2.40;;;;;;;10.33;100.00;98354.59;8359721;28;20446;-64
2021/12/28 17:51:52;;;;;;;16.25;2.78;;;;;;;10.28;100.00;98335.41;8345750;28;20052;-64
2021/12/28 17:55:53;;;;;;;18.70;4.80;;;;;;;10.25;100.00;98335.84;8347975;28;20033;-64
2021/12/28 17:59:54;;;;;;;13.35;4.32;;;;;;;10.24;100.00;98342.25;8344053;28;20044;-65
2021/12/28 18:03:56;;;;;;;10.90;3.10;;;;;;;10.24;100.00;98341.44;8332890;28;20076;-65
2021/12/28 18:07:57;;;;;;;11.23;4.35;;;;;;;10.22;100.00;98344.31;8333266;28;20037;-64
2021/12/28 18:11:58;;;;;;;12.35;2.28;;;;;;;10.29;100.00;98338.97;8327605;28;20127;-63
2021/12/28 18:15:59;;;;;;;13.63;3.72;;;;;;;10.29;100.00;98356.00;8325015;28;20514;-64
2021/12/28 18:20:01;;;;;;;17.50;6.15;;;;;;;10.25;100.00;98360.13;8348317;28;20059;-64
2021/12/28 18:24:01;;;;;;;21.67;4.95;;;;;;;10.27;100.00;98358.06;8334388;28;20039;-64
2021/12/28 18:28:02;;;;;;;12.82;2.28;;;;;;;10.29;100.00;98366.81;8347649;28;20047;-64
2021/12/28 18:32:05;;;;;;;6.15;1.85;;;;;;;10.36;100.00;98375.81;8328735;28;20146;-64
2021/12/28 18:36:07;;;;;;;10.07;2.05;;;;;;;10.40;100.00;98373.59;8331868;28;20033;-65
2021/12/28 18:40:08;;;;;;;5.50;0.95;;;;;;;10.52;100.00;98397.16;8327126;28;20055;-65
2021/12/28 18:44:11;;;;;;;6.90;1.50;;;;;;;10.54;100.00;98395.13;8337437;28;20073;-65
2021/12/28 18:48:14;;;;;;;4.95;0.88;;;;;;;10.60;100.00;98423.22;8354427;28;20091;-65
2021/12/28 18:52:14;;;;;;;3.20;0.65;;;;;;;10.59;100.00;98433.22;8346838;28;20037;-65
2021/12/28 18:56:20;;;;;;;4.05;1.45;;;;;;;10.54;100.00;98443.75;8341696;28;20139;-65